Safford, AZ

1:27 PM MST on July 28, 2014 (GMT -0700)
Safford Regional (KSAD) Elev 3176 ft | 32.86 °N, 109.64 °W | Change Station

Current weather conditions updated 36 minutes ago

Clear
Clear
89 °F
Feels Like 87 °F
N
5
Wind Variable Wind from South

Today is forecast to be Much Cooler than yesterday.

Today
High -- | Low -- °F
--% Chance of Precip.
Yesterday
High -- | Low -- °F
Precip. -- in
5:29 AM 7:20 PM
Waxing Crescent, 3% visible
Pressure 30.01 in
Visibility 10.0 miles
Clouds Clear
Heat Index 87 °F
Dew Point 56 °F
Humidity 32%
Rainfall 0.00 in
Snow Depth Not available.
UV 13 out of 12
Pollen 3.30 out of 12
Air Quality Not available.
Flu Activity Not available.
METAR KSAD 281951Z AUTO 18004KT 10SM CLR 32/13 A3016 RMK AO2 SLP161 T03170133

More Conditions Fewer Conditions

Pressure 30.01 in
Visibility 10.0 miles
Clouds Clear
Heat Index 87 °F
Dew Point 56 °F
Humidity 32%
Rainfall 0.00 in
Snow Depth Not available.
UV 13 out of 12
Pollen 3.30 out of 12
Air Quality Not available.
Flu Activity Not available.
METAR KSAD 281951Z AUTO 18004KT 10SM CLR 32/13 A3016 RMK AO2 SLP161 T03170133

More Conditions Fewer Conditions

10-Day Weather Forecast

Almanac

Astronomy

Jul. 28, 2014 Rise Set
Actual Time 5:29 AM MST 7:20 PM MST
Civil Twilight 5:02 AM MST 7:47 PM MST
Nautical Twilight 4:29 AM MST 8:20 PM MST
Astronomical Twilight 3:55 AM MST 8:54 PM MST
Moon 7:06 AM MST 8:13 PM MST
Length of Visible Light 14h 44m
Length of Day
13h 50m
Tomorrow will be 1m 25s shorter.
Waxing Crescent, 3% of the Moon is Illuminated
Today
Waxing Crescent
Aug 3
First Quarter
Aug 10
Full
Aug 17
Last Quarter
Aug 25
New

Today's Extremes

State Highs State Lows

Community

WunderPhotos

Upload Photos

1,738,488 photos uploaded!

Nearby

Snow Depth

Station Depth Elevation
Maverick Fork 0 in 9200 ft
Workman Creek 0 in 6900 ft

Earthquake Activity

City Distance Mag. Time & Date
No recent earthquake activity has been reported nearby.
Minimum magnitude displayed is 2.5.

Coastal Water Temperatures

Place Temperature
No Stations Reporting

Nearby Weather Stations

Station Location Temp. Heat Index Dew Point Humidity Wind Precip. Elev Updated Type
RAWS BLACK HILLS AZ, Fort Thomas, AZ 89 °F 88 °F 59 °F 37% ESE  at  3 mph 0.00 in / hr 3352 ft 12:53 PM MST MADIS
RAWS NOON CREEK AZ, Safford, AZ 84 °F 84 °F 60 °F 44% NE  at  8 mph 0.00 in / hr 4924 ft 12:37 PM MST MADIS
RAWS GUTHRIE AZ, Morenci, AZ 76 °F 78 °F 57 °F 52% SSW  at  7 mph 0.00 in / hr 6339 ft 1:03 PM MST MADIS
RAWS COLUMBINE AZ, Thatcher, AZ 62 °F - 50 °F 65% SSE  at  4 mph 0.00 in / hr 9521 ft 1:02 PM MST MADIS
MGIO, Safford, AZ 53.2 °F - 47 °F 79% SSW  at  2.0 mph 0.00 in / hr 10420 ft 1:16 PM MST Normal

Show More Stations Show Fewer Stations